Terminal Aerodrome Forecast
Issued by NWS

Home | Current Version | Previous Version | Text Only | Print | Product List | Glossary On
Versions: 1 2 3 4 5 6 7 8 9 10 11 12 13 14 15 16 17 18 19 20
409
FTUS43 KGRB 210220 AAB
TAFCWA
TAF AMD
KCWA 210220Z 2102/2124 32004KT 3SM BR SCT009 BKN035
      TEMPO 2104/2107 1 1/2SM BR BKN009
     FM210700 03004KT 2SM BR SCT005
      TEMPO 2109/2113 1SM BR BKN003
     FM211400 11007KT P6SM BKN012
     FM211900 12007KT P6SM SCT030=

USA.gov is the U.S. government's official web portal to all federal, state and local government web resources and services.